sensor_id;sensor_type;location;lat;lon;timestamp;P1;durP1;ratioP1;P2;durP2;ratioP2
47335;SDS011;33068;51.990;5.926;2023-05-29T00:01:35;17.75;;;2.60;;
47335;SDS011;33068;51.990;5.926;2023-05-29T00:04:03;11.65;;;2.40;;
47335;SDS011;33068;51.990;5.926;2023-05-29T00:06:30;23.92;;;3.72;;
47335;SDS011;33068;51.990;5.926;2023-05-29T00:09:00;16.45;;;2.75;;
47335;SDS011;33068;51.990;5.926;2023-05-29T00:11:29;22.42;;;3.40;;
47335;SDS011;33068;51.990;5.926;2023-05-29T00:13:56;22.58;;;3.08;;
47335;SDS011;33068;51.990;5.926;2023-05-29T00:16:23;23.73;;;3.65;;
47335;SDS011;33068;51.990;5.926;2023-05-29T00:18:50;23.83;;;2.90;;
47335;SDS011;33068;51.990;5.926;2023-05-29T00:21:19;18.50;;;4.07;;
47335;SDS011;33068;51.990;5.926;2023-05-29T00:23:47;11.60;;;2.40;;
47335;SDS011;33068;51.990;5.926;2023-05-29T00:26:14;18.98;;;3.63;;
47335;SDS011;33068;51.990;5.926;2023-05-29T00:28:46;20.23;;;3.17;;
47335;SDS011;33068;51.990;5.926;2023-05-29T00:31:13;15.50;;;2.40;;
47335;SDS011;33068;51.990;5.926;2023-05-29T00:33:40;15.05;;;2.60;;
47335;SDS011;33068;51.990;5.926;2023-05-29T00:36:07;15.13;;;2.30;;
47335;SDS011;33068;51.990;5.926;2023-05-29T00:38:35;12.50;;;2.45;;
47335;SDS011;33068;51.990;5.926;2023-05-29T00:41:02;18.75;;;2.63;;
47335;SDS011;33068;51.990;5.926;2023-05-29T00:43:30;15.23;;;2.30;;
47335;SDS011;33068;51.990;5.926;2023-05-29T00:45:58;23.23;;;3.17;;
47335;SDS011;33068;51.990;5.926;2023-05-29T00:48:25;11.57;;;2.13;;
47335;SDS011;33068;51.990;5.926;2023-05-29T00:50:53;21.15;;;2.90;;
47335;SDS011;33068;51.990;5.926;2023-05-29T00:53:20;21.13;;;3.05;;
47335;SDS011;33068;51.990;5.926;2023-05-29T00:55:47;15.35;;;2.47;;
47335;SDS011;33068;51.990;5.926;2023-05-29T00:58:15;15.45;;;1.85;;
47335;SDS011;33068;51.990;5.926;2023-05-29T01:00:42;20.00;;;2.72;;
47335;SDS011;33068;51.990;5.926;2023-05-29T01:03:11;14.88;;;1.75;;
47335;SDS011;33068;51.990;5.926;2023-05-29T01:05:42;17.33;;;2.10;;
47335;SDS011;33068;51.990;5.926;2023-05-29T01:08:09;19.52;;;2.38;;
47335;SDS011;33068;51.990;5.926;2023-05-29T01:10:37;13.07;;;2.00;;
47335;SDS011;33068;51.990;5.926;2023-05-29T01:13:06;14.20;;;2.78;;
47335;SDS011;33068;51.990;5.926;2023-05-29T01:15:37;15.23;;;2.50;;
47335;SDS011;33068;51.990;5.926;2023-05-29T01:18:23;12.80;;;2.10;;
47335;SDS011;33068;51.990;5.926;2023-05-29T01:21:00;11.13;;;2.00;;
47335;SDS011;33068;51.990;5.926;2023-05-29T01:23:37;16.73;;;1.65;;
47335;SDS011;33068;51.990;5.926;2023-05-29T01:26:21;9.63;;;1.80;;
47335;SDS011;33068;51.990;5.926;2023-05-29T01:29:12;17.45;;;2.33;;
47335;SDS011;33068;51.990;5.926;2023-05-29T01:31:42;20.83;;;2.33;;
47335;SDS011;33068;51.990;5.926;2023-05-29T01:34:10;18.40;;;2.13;;
47335;SDS011;33068;51.990;5.926;2023-05-29T01:36:42;11.38;;;2.20;;
47335;SDS011;33068;51.990;5.926;2023-05-29T01:39:11;17.45;;;2.63;;
47335;SDS011;33068;51.990;5.926;2023-05-29T01:41:39;18.08;;;2.78;;
47335;SDS011;33068;51.990;5.926;2023-05-29T01:44:07;15.13;;;2.15;;
47335;SDS011;33068;51.990;5.926;2023-05-29T01:46:36;18.75;;;2.03;;
47335;SDS011;33068;51.990;5.926;2023-05-29T01:49:06;14.20;;;2.28;;
47335;SDS011;33068;51.990;5.926;2023-05-29T01:51:35;19.50;;;2.13;;
47335;SDS011;33068;51.990;5.926;2023-05-29T01:54:02;19.00;;;2.35;;
47335;SDS011;33068;51.990;5.926;2023-05-29T01:56:30;17.42;;;2.15;;
47335;SDS011;33068;51.990;5.926;2023-05-29T01:58:58;22.73;;;2.85;;
47335;SDS011;33068;51.990;5.926;2023-05-29T02:01:27;16.73;;;2.55;;
47335;SDS011;33068;51.990;5.926;2023-05-29T02:03:55;25.73;;;2.72;;
47335;SDS011;33068;51.990;5.926;2023-05-29T02:06:22;18.50;;;2.70;;
47335;SDS011;33068;51.990;5.926;2023-05-29T02:08:50;14.80;;;2.03;;
47335;SDS011;33068;51.990;5.926;2023-05-29T02:11:18;15.50;;;2.70;;
47335;SDS011;33068;51.990;5.926;2023-05-29T02:13:45;16.30;;;2.35;;
47335;SDS011;33068;51.990;5.926;2023-05-29T02:16:13;16.27;;;2.50;;
47335;SDS011;33068;51.990;5.926;2023-05-29T02:18:40;22.30;;;2.55;;
47335;SDS011;33068;51.990;5.926;2023-05-29T02:21:10;18.50;;;2.78;;
47335;SDS011;33068;51.990;5.926;2023-05-29T02:23:37;21.58;;;3.50;;
47335;SDS011;33068;51.990;5.926;2023-05-29T02:26:04;19.33;;;2.72;;
47335;SDS011;33068;51.990;5.926;2023-05-29T02:28:31;19.50;;;2.22;;
47335;SDS011;33068;51.990;5.926;2023-05-29T02:30:59;18.98;;;2.97;;
47335;SDS011;33068;51.990;5.926;2023-05-29T02:33:26;25.75;;;3.05;;
47335;SDS011;33068;51.990;5.926;2023-05-29T02:35:53;22.42;;;3.65;;
47335;SDS011;33068;51.990;5.926;2023-05-29T02:38:22;21.50;;;2.50;;
47335;SDS011;33068;51.990;5.926;2023-05-29T02:40:49;18.30;;;2.42;;
47335;SDS011;33068;51.990;5.926;2023-05-29T02:43:16;21.02;;;2.70;;
47335;SDS011;33068;51.990;5.926;2023-05-29T02:45:43;31.00;;;3.53;;
47335;SDS011;33068;51.990;5.926;2023-05-29T02:48:10;19.10;;;2.85;;
47335;SDS011;33068;51.990;5.926;2023-05-29T02:50:37;20.02;;;2.30;;
47335;SDS011;33068;51.990;5.926;2023-05-29T02:53:04;14.98;;;2.75;;
47335;SDS011;33068;51.990;5.926;2023-05-29T02:55:33;28.35;;;3.78;;
47335;SDS011;33068;51.990;5.926;2023-05-29T02:58:01;18.45;;;2.80;;
47335;SDS011;33068;51.990;5.926;2023-05-29T03:00:28;17.48;;;2.83;;
47335;SDS011;33068;51.990;5.926;2023-05-29T03:02:57;20.83;;;3.00;;
47335;SDS011;33068;51.990;5.926;2023-05-29T03:05:24;22.17;;;3.13;;
47335;SDS011;33068;51.990;5.926;2023-05-29T03:07:52;12.85;;;2.63;;
47335;SDS011;33068;51.990;5.926;2023-05-29T03:10:19;15.25;;;2.60;;
47335;SDS011;33068;51.990;5.926;2023-05-29T03:12:50;19.40;;;3.40;;
47335;SDS011;33068;51.990;5.926;2023-05-29T03:15:17;19.50;;;2.85;;
47335;SDS011;33068;51.990;5.926;2023-05-29T03:17:46;15.02;;;2.42;;
47335;SDS011;33068;51.990;5.926;2023-05-29T03:20:16;19.30;;;3.22;;
47335;SDS011;33068;51.990;5.926;2023-05-29T03:22:43;20.70;;;3.03;;
47335;SDS011;33068;51.990;5.926;2023-05-29T03:25:11;19.88;;;2.60;;
47335;SDS011;33068;51.990;5.926;2023-05-29T03:27:38;25.15;;;3.45;;
47335;SDS011;33068;51.990;5.926;2023-05-29T03:30:11;23.50;;;3.10;;
47335;SDS011;33068;51.990;5.926;2023-05-29T03:32:39;21.35;;;2.92;;
47335;SDS011;33068;51.990;5.926;2023-05-29T03:35:07;20.05;;;2.97;;
47335;SDS011;33068;51.990;5.926;2023-05-29T03:37:37;24.90;;;3.58;;
47335;SDS011;33068;51.990;5.926;2023-05-29T03:40:05;23.38;;;3.55;;
47335;SDS011;33068;51.990;5.926;2023-05-29T03:42:33;18.27;;;2.97;;
47335;SDS011;33068;51.990;5.926;2023-05-29T03:45:01;22.08;;;3.72;;
47335;SDS011;33068;51.990;5.926;2023-05-29T03:47:31;25.55;;;3.72;;
47335;SDS011;33068;51.990;5.926;2023-05-29T03:49:59;20.35;;;3.13;;
47335;SDS011;33068;51.990;5.926;2023-05-29T03:52:30;13.38;;;2.40;;
47335;SDS011;33068;51.990;5.926;2023-05-29T03:54:57;22.70;;;2.72;;
47335;SDS011;33068;51.990;5.926;2023-05-29T03:57:25;15.45;;;2.55;;
47335;SDS011;33068;51.990;5.926;2023-05-29T03:59:52;22.50;;;2.90;;
47335;SDS011;33068;51.990;5.926;2023-05-29T04:02:21;14.10;;;2.53;;
47335;SDS011;33068;51.990;5.926;2023-05-29T04:04:50;25.27;;;3.10;;
47335;SDS011;33068;51.990;5.926;2023-05-29T04:07:18;21.02;;;2.30;;
47335;SDS011;33068;51.990;5.926;2023-05-29T04:09:47;24.90;;;3.28;;
47335;SDS011;33068;51.990;5.926;2023-05-29T04:12:14;20.13;;;2.67;;
47335;SDS011;33068;51.990;5.926;2023-05-29T04:14:42;18.70;;;2.33;;
47335;SDS011;33068;51.990;5.926;2023-05-29T04:17:09;23.02;;;2.38;;
47335;SDS011;33068;51.990;5.926;2023-05-29T04:19:36;20.08;;;3.03;;
47335;SDS011;33068;51.990;5.926;2023-05-29T04:22:04;15.00;;;2.40;;
47335;SDS011;33068;51.990;5.926;2023-05-29T04:24:32;23.85;;;3.22;;
47335;SDS011;33068;51.990;5.926;2023-05-29T04:27:00;22.45;;;3.92;;
47335;SDS011;33068;51.990;5.926;2023-05-29T04:29:28;17.23;;;2.55;;
47335;SDS011;33068;51.990;5.926;2023-05-29T04:31:55;22.20;;;2.42;;
47335;SDS011;33068;51.990;5.926;2023-05-29T04:34:23;24.10;;;3.08;;
47335;SDS011;33068;51.990;5.926;2023-05-29T04:36:50;23.65;;;2.78;;
47335;SDS011;33068;51.990;5.926;2023-05-29T04:39:19;22.83;;;3.00;;
47335;SDS011;33068;51.990;5.926;2023-05-29T04:41:48;21.45;;;3.33;;
47335;SDS011;33068;51.990;5.926;2023-05-29T04:44:18;21.98;;;3.10;;
47335;SDS011;33068;51.990;5.926;2023-05-29T04:46:50;20.98;;;2.60;;
47335;SDS011;33068;51.990;5.926;2023-05-29T04:49:19;16.85;;;2.45;;
47335;SDS011;33068;51.990;5.926;2023-05-29T04:51:46;19.02;;;3.45;;
47335;SDS011;33068;51.990;5.926;2023-05-29T04:54:19;20.75;;;3.10;;
47335;SDS011;33068;51.990;5.926;2023-05-29T04:56:51;24.58;;;3.25;;
47335;SDS011;33068;51.990;5.926;2023-05-29T04:59:25;20.73;;;2.40;;
47335;SDS011;33068;51.990;5.926;2023-05-29T05:01:53;17.55;;;3.00;;
47335;SDS011;33068;51.990;5.926;2023-05-29T05:04:20;14.75;;;3.00;;
47335;SDS011;33068;51.990;5.926;2023-05-29T05:06:47;17.95;;;3.05;;
47335;SDS011;33068;51.990;5.926;2023-05-29T05:09:14;17.70;;;2.97;;
47335;SDS011;33068;51.990;5.926;2023-05-29T05:11:43;16.17;;;2.97;;
47335;SDS011;33068;51.990;5.926;2023-05-29T05:14:11;17.48;;;2.80;;
47335;SDS011;33068;51.990;5.926;2023-05-29T05:16:39;12.20;;;2.42;;
47335;SDS011;33068;51.990;5.926;2023-05-29T05:19:06;16.77;;;2.50;;
47335;SDS011;33068;51.990;5.926;2023-05-29T05:21:36;22.10;;;3.20;;
47335;SDS011;33068;51.990;5.926;2023-05-29T05:24:04;19.75;;;3.13;;
47335;SDS011;33068;51.990;5.926;2023-05-29T05:26:31;20.30;;;2.95;;
47335;SDS011;33068;51.990;5.926;2023-05-29T05:29:00;20.20;;;2.78;;
47335;SDS011;33068;51.990;5.926;2023-05-29T05:31:28;22.38;;;2.90;;
47335;SDS011;33068;51.990;5.926;2023-05-29T05:33:56;20.85;;;2.97;;
47335;SDS011;33068;51.990;5.926;2023-05-29T05:36:24;18.77;;;2.45;;
47335;SDS011;33068;51.990;5.926;2023-05-29T05:38:56;16.77;;;2.15;;
47335;SDS011;33068;51.990;5.926;2023-05-29T05:41:24;13.95;;;2.70;;
47335;SDS011;33068;51.990;5.926;2023-05-29T05:43:52;16.25;;;2.55;;
47335;SDS011;33068;51.990;5.926;2023-05-29T05:46:39;21.23;;;3.00;;
47335;SDS011;33068;51.990;5.926;2023-05-29T05:49:06;19.08;;;2.03;;
47335;SDS011;33068;51.990;5.926;2023-05-29T05:51:34;26.23;;;3.05;;
47335;SDS011;33068;51.990;5.926;2023-05-29T05:54:01;16.80;;;2.28;;
47335;SDS011;33068;51.990;5.926;2023-05-29T05:56:30;17.75;;;2.45;;
47335;SDS011;33068;51.990;5.926;2023-05-29T05:58:57;15.90;;;2.55;;
47335;SDS011;33068;51.990;5.926;2023-05-29T06:01:24;19.23;;;1.83;;
47335;SDS011;33068;51.990;5.926;2023-05-29T06:03:53;16.23;;;2.53;;
47335;SDS011;33068;51.990;5.926;2023-05-29T06:06:21;12.05;;;1.95;;
47335;SDS011;33068;51.990;5.926;2023-05-29T06:08:49;15.43;;;2.05;;
47335;SDS011;33068;51.990;5.926;2023-05-29T06:11:16;13.13;;;2.08;;
47335;SDS011;33068;51.990;5.926;2023-05-29T06:13:44;12.88;;;1.77;;
47335;SDS011;33068;51.990;5.926;2023-05-29T06:16:18;13.80;;;2.30;;
47335;SDS011;33068;51.990;5.926;2023-05-29T06:18:45;19.60;;;2.65;;
47335;SDS011;33068;51.990;5.926;2023-05-29T06:21:14;12.25;;;2.15;;
47335;SDS011;33068;51.990;5.926;2023-05-29T06:23:50;13.52;;;2.90;;
47335;SDS011;33068;51.990;5.926;2023-05-29T06:26:17;20.13;;;2.05;;
47335;SDS011;33068;51.990;5.926;2023-05-29T06:28:44;15.40;;;1.58;;
47335;SDS011;33068;51.990;5.926;2023-05-29T06:31:12;11.80;;;1.83;;
47335;SDS011;33068;51.990;5.926;2023-05-29T06:33:39;20.17;;;2.50;;
47335;SDS011;33068;51.990;5.926;2023-05-29T06:36:07;20.77;;;2.15;;
47335;SDS011;33068;51.990;5.926;2023-05-29T06:38:36;14.93;;;1.90;;
47335;SDS011;33068;51.990;5.926;2023-05-29T06:41:04;11.80;;;1.67;;
47335;SDS011;33068;51.990;5.926;2023-05-29T06:43:33;8.57;;;1.67;;
47335;SDS011;33068;51.990;5.926;2023-05-29T06:46:02;14.77;;;2.10;;
47335;SDS011;33068;51.990;5.926;2023-05-29T06:48:32;10.25;;;1.73;;
47335;SDS011;33068;51.990;5.926;2023-05-29T06:50:59;14.15;;;1.90;;
47335;SDS011;33068;51.990;5.926;2023-05-29T06:56:05;14.85;;;1.50;;
47335;SDS011;33068;51.990;5.926;2023-05-29T06:58:33;18.42;;;2.10;;
47335;SDS011;33068;51.990;5.926;2023-05-29T07:01:00;15.82;;;1.70;;
47335;SDS011;33068;51.990;5.926;2023-05-29T07:03:31;15.75;;;1.73;;
47335;SDS011;33068;51.990;5.926;2023-05-29T07:06:01;11.25;;;1.60;;
47335;SDS011;33068;51.990;5.926;2023-05-29T07:08:28;12.43;;;1.60;;
47335;SDS011;33068;51.990;5.926;2023-05-29T07:10:57;12.43;;;1.77;;
47335;SDS011;33068;51.990;5.926;2023-05-29T07:13:24;14.27;;;1.85;;
47335;SDS011;33068;51.990;5.926;2023-05-29T07:15:52;11.15;;;1.95;;
47335;SDS011;33068;51.990;5.926;2023-05-29T07:18:26;13.07;;;1.65;;
47335;SDS011;33068;51.990;5.926;2023-05-29T07:20:53;9.93;;;1.80;;
47335;SDS011;33068;51.990;5.926;2023-05-29T07:23:24;18.02;;;1.52;;
47335;SDS011;33068;51.990;5.926;2023-05-29T07:25:52;10.82;;;1.85;;
47335;SDS011;33068;51.990;5.926;2023-05-29T07:28:20;11.00;;;1.42;;
47335;SDS011;33068;51.990;5.926;2023-05-29T07:30:48;13.70;;;1.75;;
47335;SDS011;33068;51.990;5.926;2023-05-29T07:33:15;14.27;;;1.77;;
47335;SDS011;33068;51.990;5.926;2023-05-29T07:35:43;17.73;;;1.90;;
47335;SDS011;33068;51.990;5.926;2023-05-29T07:38:10;10.77;;;1.58;;
47335;SDS011;33068;51.990;5.926;2023-05-29T07:40:39;7.93;;;1.40;;
47335;SDS011;33068;51.990;5.926;2023-05-29T07:43:11;10.05;;;1.70;;
47335;SDS011;33068;51.990;5.926;2023-05-29T07:45:50;6.82;;;1.25;;
47335;SDS011;33068;51.990;5.926;2023-05-29T07:48:17;9.30;;;1.38;;
47335;SDS011;33068;51.990;5.926;2023-05-29T07:50:46;8.68;;;1.17;;
47335;SDS011;33068;51.990;5.926;2023-05-29T07:53:14;9.10;;;1.70;;
47335;SDS011;33068;51.990;5.926;2023-05-29T07:55:41;14.00;;;1.50;;
47335;SDS011;33068;51.990;5.926;2023-05-29T07:58:09;9.50;;;1.30;;
47335;SDS011;33068;51.990;5.926;2023-05-29T08:00:37;13.15;;;2.75;;
47335;SDS011;33068;51.990;5.926;2023-05-29T08:03:06;8.50;;;1.52;;
47335;SDS011;33068;51.990;5.926;2023-05-29T08:05:52;11.32;;;1.20;;
47335;SDS011;33068;51.990;5.926;2023-05-29T08:08:20;10.82;;;1.50;;
47335;SDS011;33068;51.990;5.926;2023-05-29T08:10:47;9.75;;;1.60;;
47335;SDS011;33068;51.990;5.926;2023-05-29T08:13:14;15.18;;;1.60;;
47335;SDS011;33068;51.990;5.926;2023-05-29T08:15:43;9.32;;;1.52;;
47335;SDS011;33068;51.990;5.926;2023-05-29T08:18:12;10.70;;;1.45;;
47335;SDS011;33068;51.990;5.926;2023-05-29T08:20:39;10.02;;;1.08;;
47335;SDS011;33068;51.990;5.926;2023-05-29T08:23:06;9.65;;;1.70;;
47335;SDS011;33068;51.990;5.926;2023-05-29T08:25:33;8.02;;;1.10;;
47335;SDS011;33068;51.990;5.926;2023-05-29T08:28:00;7.22;;;1.27;;
47335;SDS011;33068;51.990;5.926;2023-05-29T08:30:27;8.00;;;1.30;;
47335;SDS011;33068;51.990;5.926;2023-05-29T08:32:54;8.50;;;1.70;;
47335;SDS011;33068;51.990;5.926;2023-05-29T08:35:23;11.30;;;1.73;;
47335;SDS011;33068;51.990;5.926;2023-05-29T08:37:50;8.85;;;1.35;;
47335;SDS011;33068;51.990;5.926;2023-05-29T08:40:18;15.55;;;2.08;;
47335;SDS011;33068;51.990;5.926;2023-05-29T08:42:47;6.32;;;1.30;;
47335;SDS011;33068;51.990;5.926;2023-05-29T08:45:17;12.48;;;1.67;;
47335;SDS011;33068;51.990;5.926;2023-05-29T08:47:47;8.10;;;1.35;;
47335;SDS011;33068;51.990;5.926;2023-05-29T08:50:18;9.13;;;1.23;;
47335;SDS011;33068;51.990;5.926;2023-05-29T08:52:47;8.05;;;1.45;;
47335;SDS011;33068;51.990;5.926;2023-05-29T08:55:15;5.75;;;0.90;;
47335;SDS011;33068;51.990;5.926;2023-05-29T08:57:42;9.40;;;1.35;;
47335;SDS011;33068;51.990;5.926;2023-05-29T09:00:11;7.57;;;1.55;;
47335;SDS011;33068;51.990;5.926;2023-05-29T09:02:38;11.73;;;1.50;;
47335;SDS011;33068;51.990;5.926;2023-05-29T09:05:06;7.63;;;1.27;;
47335;SDS011;33068;51.990;5.926;2023-05-29T09:07:35;11.30;;;1.30;;
47335;SDS011;33068;51.990;5.926;2023-05-29T09:10:05;8.52;;;1.30;;
47335;SDS011;33068;51.990;5.926;2023-05-29T09:12:34;12.18;;;1.40;;
47335;SDS011;33068;51.990;5.926;2023-05-29T09:15:01;6.95;;;1.15;;
47335;SDS011;33068;51.990;5.926;2023-05-29T09:17:30;10.02;;;1.60;;
47335;SDS011;33068;51.990;5.926;2023-05-29T09:19:57;9.10;;;1.85;;
47335;SDS011;33068;51.990;5.926;2023-05-29T09:22:25;8.25;;;1.10;;
47335;SDS011;33068;51.990;5.926;2023-05-29T09:24:52;9.48;;;1.33;;
47335;SDS011;33068;51.990;5.926;2023-05-29T09:27:22;9.90;;;1.10;;
47335;SDS011;33068;51.990;5.926;2023-05-29T09:29:49;10.82;;;1.85;;
47335;SDS011;33068;51.990;5.926;2023-05-29T09:32:17;9.68;;;1.80;;
47335;SDS011;33068;51.990;5.926;2023-05-29T09:34:46;7.30;;;1.35;;
47335;SDS011;33068;51.990;5.926;2023-05-29T09:37:13;14.07;;;2.00;;
47335;SDS011;33068;51.990;5.926;2023-05-29T09:39:46;13.23;;;1.85;;
47335;SDS011;33068;51.990;5.926;2023-05-29T09:42:14;5.68;;;1.15;;
47335;SDS011;33068;51.990;5.926;2023-05-29T09:44:42;8.50;;;1.10;;
47335;SDS011;33068;51.990;5.926;2023-05-29T09:47:13;8.00;;;1.35;;
47335;SDS011;33068;51.990;5.926;2023-05-29T09:49:42;7.47;;;1.58;;
47335;SDS011;33068;51.990;5.926;2023-05-29T09:52:11;6.93;;;1.25;;
47335;SDS011;33068;51.990;5.926;2023-05-29T09:54:41;7.97;;;1.13;;
47335;SDS011;33068;51.990;5.926;2023-05-29T09:57:10;4.80;;;0.95;;
47335;SDS011;33068;51.990;5.926;2023-05-29T09:59:39;9.82;;;1.67;;
47335;SDS011;33068;51.990;5.926;2023-05-29T10:02:16;8.60;;;1.83;;
47335;SDS011;33068;51.990;5.926;2023-05-29T10:04:44;8.95;;;1.38;;
47335;SDS011;33068;51.990;5.926;2023-05-29T10:07:12;12.40;;;1.52;;
47335;SDS011;33068;51.990;5.926;2023-05-29T10:09:47;12.07;;;1.92;;
47335;SDS011;33068;51.990;5.926;2023-05-29T10:12:19;13.73;;;1.55;;
47335;SDS011;33068;51.990;5.926;2023-05-29T10:14:48;7.07;;;1.50;;
47335;SDS011;33068;51.990;5.926;2023-05-29T10:17:17;7.30;;;1.50;;
47335;SDS011;33068;51.990;5.926;2023-05-29T10:19:49;8.50;;;1.23;;
47335;SDS011;33068;51.990;5.926;2023-05-29T10:22:17;5.78;;;1.85;;
47335;SDS011;33068;51.990;5.926;2023-05-29T10:24:47;8.13;;;1.33;;
47335;SDS011;33068;51.990;5.926;2023-05-29T10:27:16;6.57;;;1.77;;
47335;SDS011;33068;51.990;5.926;2023-05-29T10:29:47;6.30;;;1.33;;
47335;SDS011;33068;51.990;5.926;2023-05-29T10:32:20;6.88;;;1.20;;
47335;SDS011;33068;51.990;5.926;2023-05-29T10:34:52;10.82;;;1.45;;
47335;SDS011;33068;51.990;5.926;2023-05-29T10:37:29;8.05;;;1.33;;
47335;SDS011;33068;51.990;5.926;2023-05-29T10:40:03;7.38;;;1.10;;
47335;SDS011;33068;51.990;5.926;2023-05-29T10:42:40;7.60;;;1.30;;
47335;SDS011;33068;51.990;5.926;2023-05-29T10:45:10;5.30;;;1.20;;
47335;SDS011;33068;51.990;5.926;2023-05-29T10:48:00;8.05;;;1.15;;
47335;SDS011;33068;51.990;5.926;2023-05-29T10:51:07;7.57;;;1.52;;
47335;SDS011;33068;51.990;5.926;2023-05-29T10:53:34;8.13;;;1.20;;
47335;SDS011;33068;51.990;5.926;2023-05-29T10:56:08;8.40;;;2.22;;
47335;SDS011;33068;51.990;5.926;2023-05-29T10:58:41;6.82;;;1.35;;
47335;SDS011;33068;51.990;5.926;2023-05-29T11:01:09;7.68;;;1.33;;
47335;SDS011;33068;51.990;5.926;2023-05-29T11:03:36;5.75;;;1.13;;
47335;SDS011;33068;51.990;5.926;2023-05-29T11:06:04;8.68;;;1.38;;
47335;SDS011;33068;51.990;5.926;2023-05-29T11:08:33;6.95;;;1.13;;
47335;SDS011;33068;51.990;5.926;2023-05-29T11:11:02;7.00;;;1.75;;
47335;SDS011;33068;51.990;5.926;2023-05-29T11:13:32;5.95;;;1.20;;
47335;SDS011;33068;51.990;5.926;2023-05-29T11:16:10;6.60;;;1.30;;
47335;SDS011;33068;51.990;5.926;2023-05-29T11:18:42;8.43;;;1.33;;
47335;SDS011;33068;51.990;5.926;2023-05-29T11:21:28;8.00;;;1.00;;
47335;SDS011;33068;51.990;5.926;2023-05-29T11:23:59;9.18;;;1.83;;
47335;SDS011;33068;51.990;5.926;2023-05-29T11:26:30;7.20;;;1.38;;
47335;SDS011;33068;51.990;5.926;2023-05-29T11:28:58;7.15;;;1.15;;
47335;SDS011;33068;51.990;5.926;2023-05-29T11:31:28;5.78;;;1.40;;
47335;SDS011;33068;51.990;5.926;2023-05-29T11:33:58;6.88;;;1.35;;
47335;SDS011;33068;51.990;5.926;2023-05-29T11:36:28;8.45;;;1.75;;
47335;SDS011;33068;51.990;5.926;2023-05-29T11:38:55;7.35;;;1.33;;
47335;SDS011;33068;51.990;5.926;2023-05-29T11:41:23;12.38;;;1.88;;
47335;SDS011;33068;51.990;5.926;2023-05-29T11:43:57;6.88;;;1.50;;
47335;SDS011;33068;51.990;5.926;2023-05-29T11:46:28;9.93;;;1.35;;
47335;SDS011;33068;51.990;5.926;2023-05-29T11:48:57;9.23;;;1.38;;
47335;SDS011;33068;51.990;5.926;2023-05-29T11:51:25;10.27;;;1.65;;
47335;SDS011;33068;51.990;5.926;2023-05-29T11:53:53;11.45;;;1.98;;
47335;SDS011;33068;51.990;5.926;2023-05-29T11:56:23;9.05;;;1.67;;
47335;SDS011;33068;51.990;5.926;2023-05-29T11:58:51;8.70;;;1.85;;
47335;SDS011;33068;51.990;5.926;2023-05-29T12:01:22;8.13;;;1.88;;
47335;SDS011;33068;51.990;5.926;2023-05-29T12:03:53;13.70;;;1.83;;
47335;SDS011;33068;51.990;5.926;2023-05-29T12:06:32;10.18;;;1.75;;
47335;SDS011;33068;51.990;5.926;2023-05-29T12:09:00;6.32;;;1.02;;
47335;SDS011;33068;51.990;5.926;2023-05-29T12:11:29;12.68;;;1.83;;
47335;SDS011;33068;51.990;5.926;2023-05-29T12:13:57;9.05;;;1.73;;
47335;SDS011;33068;51.990;5.926;2023-05-29T12:16:25;6.80;;;1.45;;
47335;SDS011;33068;51.990;5.926;2023-05-29T12:18:54;6.85;;;1.80;;
47335;SDS011;33068;51.990;5.926;2023-05-29T12:21:21;6.40;;;1.52;;
47335;SDS011;33068;51.990;5.926;2023-05-29T12:23:51;11.85;;;1.85;;
47335;SDS011;33068;51.990;5.926;2023-05-29T12:26:21;9.75;;;1.50;;
47335;SDS011;33068;51.990;5.926;2023-05-29T12:28:48;7.07;;;1.77;;
47335;SDS011;33068;51.990;5.926;2023-05-29T12:31:25;10.68;;;2.10;;
47335;SDS011;33068;51.990;5.926;2023-05-29T12:33:59;5.40;;;1.40;;
47335;SDS011;33068;51.990;5.926;2023-05-29T12:36:27;6.55;;;1.58;;
47335;SDS011;33068;51.990;5.926;2023-05-29T12:38:56;8.63;;;1.77;;
47335;SDS011;33068;51.990;5.926;2023-05-29T12:41:26;14.27;;;1.90;;
47335;SDS011;33068;51.990;5.926;2023-05-29T12:43:54;10.88;;;1.60;;
47335;SDS011;33068;51.990;5.926;2023-05-29T12:46:23;6.07;;;1.42;;
47335;SDS011;33068;51.990;5.926;2023-05-29T12:48:52;11.02;;;1.63;;
47335;SDS011;33068;51.990;5.926;2023-05-29T12:51:24;8.98;;;1.40;;
47335;SDS011;33068;51.990;5.926;2023-05-29T12:53:53;7.93;;;1.80;;
47335;SDS011;33068;51.990;5.926;2023-05-29T12:56:20;11.65;;;1.85;;
47335;SDS011;33068;51.990;5.926;2023-05-29T12:58:49;6.00;;;1.52;;
47335;SDS011;33068;51.990;5.926;2023-05-29T13:01:17;5.47;;;1.65;;
47335;SDS011;33068;51.990;5.926;2023-05-29T13:03:45;7.70;;;1.88;;
47335;SDS011;33068;51.990;5.926;2023-05-29T13:06:12;8.82;;;1.45;;
47335;SDS011;33068;51.990;5.926;2023-05-29T13:08:41;8.55;;;1.70;;
47335;SDS011;33068;51.990;5.926;2023-05-29T13:11:08;7.30;;;1.58;;
47335;SDS011;33068;51.990;5.926;2023-05-29T13:13:35;10.20;;;1.30;;
47335;SDS011;33068;51.990;5.926;2023-05-29T13:16:02;8.55;;;1.60;;
47335;SDS011;33068;51.990;5.926;2023-05-29T13:18:30;11.32;;;1.52;;
47335;SDS011;33068;51.990;5.926;2023-05-29T13:20:57;8.95;;;1.80;;
47335;SDS011;33068;51.990;5.926;2023-05-29T13:23:26;9.20;;;1.73;;
47335;SDS011;33068;51.990;5.926;2023-05-29T13:25:54;10.52;;;1.27;;
47335;SDS011;33068;51.990;5.926;2023-05-29T13:28:21;7.10;;;1.27;;
47335;SDS011;33068;51.990;5.926;2023-05-29T13:30:49;11.23;;;1.48;;
47335;SDS011;33068;51.990;5.926;2023-05-29T13:33:16;7.43;;;1.55;;
47335;SDS011;33068;51.990;5.926;2023-05-29T13:35:43;9.70;;;1.70;;
47335;SDS011;33068;51.990;5.926;2023-05-29T13:38:10;7.68;;;1.70;;
47335;SDS011;33068;51.990;5.926;2023-05-29T13:40:37;8.05;;;1.85;;
47335;SDS011;33068;51.990;5.926;2023-05-29T13:43:06;5.90;;;1.48;;
47335;SDS011;33068;51.990;5.926;2023-05-29T13:45:33;7.38;;;1.58;;
47335;SDS011;33068;51.990;5.926;2023-05-29T13:48:00;9.32;;;1.23;;
47335;SDS011;33068;51.990;5.926;2023-05-29T13:50:27;8.38;;;1.58;;
47335;SDS011;33068;51.990;5.926;2023-05-29T13:52:54;12.35;;;1.77;;
47335;SDS011;33068;51.990;5.926;2023-05-29T13:55:21;10.40;;;1.48;;
47335;SDS011;33068;51.990;5.926;2023-05-29T13:57:48;8.30;;;1.35;;
47335;SDS011;33068;51.990;5.926;2023-05-29T14:00:17;7.50;;;1.20;;
47335;SDS011;33068;51.990;5.926;2023-05-29T14:02:44;7.47;;;1.30;;
47335;SDS011;33068;51.990;5.926;2023-05-29T14:05:11;10.20;;;1.15;;
47335;SDS011;33068;51.990;5.926;2023-05-29T14:07:38;7.35;;;1.67;;
47335;SDS011;33068;51.990;5.926;2023-05-29T14:10:06;4.82;;;0.95;;
47335;SDS011;33068;51.990;5.926;2023-05-29T14:12:33;10.13;;;1.25;;
47335;SDS011;33068;51.990;5.926;2023-05-29T14:15:00;6.72;;;1.60;;
47335;SDS011;33068;51.990;5.926;2023-05-29T14:17:29;8.52;;;1.23;;
47335;SDS011;33068;51.990;5.926;2023-05-29T14:19:56;7.43;;;1.27;;
47335;SDS011;33068;51.990;5.926;2023-05-29T14:22:23;6.28;;;1.00;;
47335;SDS011;33068;51.990;5.926;2023-05-29T14:24:50;7.10;;;1.30;;
47335;SDS011;33068;51.990;5.926;2023-05-29T14:27:17;6.18;;;1.10;;
47335;SDS011;33068;51.990;5.926;2023-05-29T14:29:44;4.75;;;1.13;;
47335;SDS011;33068;51.990;5.926;2023-05-29T14:32:11;4.97;;;1.23;;
47335;SDS011;33068;51.990;5.926;2023-05-29T14:34:40;6.90;;;1.35;;
47335;SDS011;33068;51.990;5.926;2023-05-29T14:37:07;5.75;;;1.20;;
47335;SDS011;33068;51.990;5.926;2023-05-29T14:39:34;7.40;;;1.13;;
47335;SDS011;33068;51.990;5.926;2023-05-29T14:42:01;5.30;;;1.08;;
47335;SDS011;33068;51.990;5.926;2023-05-29T14:44:28;7.43;;;1.27;;
47335;SDS011;33068;51.990;5.926;2023-05-29T14:46:55;11.10;;;1.58;;
47335;SDS011;33068;51.990;5.926;2023-05-29T14:49:23;8.07;;;1.52;;
47335;SDS011;33068;51.990;5.926;2023-05-29T14:51:54;3.55;;;0.90;;